sensor_id;sensor_type;location;lat;lon;timestamp;P1;durP1;ratioP1;P2;durP2;ratioP2
73841;SDS011;62184;52.006;5.924;2023-08-06T00:01:44;20.20;;;17.75;;
73841;SDS011;62184;52.006;5.924;2023-08-06T00:04:11;19.67;;;17.67;;
73841;SDS011;62184;52.006;5.924;2023-08-06T00:06:37;19.25;;;17.27;;
73841;SDS011;62184;52.006;5.924;2023-08-06T00:09:06;19.73;;;17.65;;
73841;SDS011;62184;52.006;5.924;2023-08-06T00:11:33;19.05;;;17.15;;
73841;SDS011;62184;52.006;5.924;2023-08-06T00:13:59;19.47;;;17.40;;
73841;SDS011;62184;52.006;5.924;2023-08-06T00:16:26;19.10;;;17.10;;
73841;SDS011;62184;52.006;5.924;2023-08-06T00:18:52;19.00;;;17.15;;
73841;SDS011;62184;52.006;5.924;2023-08-06T00:21:19;18.77;;;16.90;;
73841;SDS011;62184;52.006;5.924;2023-08-06T00:23:45;18.85;;;16.90;;
73841;SDS011;62184;52.006;5.924;2023-08-06T00:26:14;18.77;;;16.87;;
73841;SDS011;62184;52.006;5.924;2023-08-06T00:28:41;18.98;;;16.98;;
73841;SDS011;62184;52.006;5.924;2023-08-06T00:31:07;20.02;;;17.88;;
73841;SDS011;62184;52.006;5.924;2023-08-06T00:33:34;20.55;;;17.52;;
73841;SDS011;62184;52.006;5.924;2023-08-06T00:36:00;20.42;;;17.55;;
73841;SDS011;62184;52.006;5.924;2023-08-06T00:38:27;19.45;;;17.30;;
73841;SDS011;62184;52.006;5.924;2023-08-06T00:40:53;19.55;;;17.45;;
73841;SDS011;62184;52.006;5.924;2023-08-06T00:43:22;19.67;;;17.52;;
73841;SDS011;62184;52.006;5.924;2023-08-06T00:45:49;19.05;;;16.63;;
73841;SDS011;62184;52.006;5.924;2023-08-06T00:48:15;18.90;;;16.90;;
73841;SDS011;62184;52.006;5.924;2023-08-06T00:50:43;20.45;;;16.80;;
73841;SDS011;62184;52.006;5.924;2023-08-06T00:53:10;19.98;;;17.42;;
73841;SDS011;62184;52.006;5.924;2023-08-06T00:55:37;20.90;;;17.58;;
73841;SDS011;62184;52.006;5.924;2023-08-06T00:58:03;21.33;;;18.30;;
73841;SDS011;62184;52.006;5.924;2023-08-06T01:00:33;20.63;;;18.23;;
73841;SDS011;62184;52.006;5.924;2023-08-06T01:03:00;21.27;;;18.37;;
73841;SDS011;62184;52.006;5.924;2023-08-06T01:05:27;24.38;;;21.17;;
73841;SDS011;62184;52.006;5.924;2023-08-06T01:07:58;25.33;;;21.45;;
73841;SDS011;62184;52.006;5.924;2023-08-06T01:10:47;23.70;;;19.90;;
73841;SDS011;62184;52.006;5.924;2023-08-06T01:13:28;25.40;;;20.60;;
73841;SDS011;62184;52.006;5.924;2023-08-06T01:16:10;27.00;;;21.38;;
73841;SDS011;62184;52.006;5.924;2023-08-06T01:18:40;28.65;;;21.05;;
73841;SDS011;62184;52.006;5.924;2023-08-06T01:21:09;27.45;;;21.10;;
73841;SDS011;62184;52.006;5.924;2023-08-06T01:23:35;27.60;;;20.58;;
73841;SDS011;62184;52.006;5.924;2023-08-06T01:26:05;26.10;;;20.23;;
73841;SDS011;62184;52.006;5.924;2023-08-06T01:28:41;29.27;;;20.70;;
73841;SDS011;62184;52.006;5.924;2023-08-06T01:31:18;30.17;;;20.13;;
73841;SDS011;62184;52.006;5.924;2023-08-06T01:33:52;25.35;;;18.23;;
73841;SDS011;62184;52.006;5.924;2023-08-06T01:36:24;27.50;;;19.07;;
73841;SDS011;62184;52.006;5.924;2023-08-06T01:38:52;29.63;;;20.02;;
73841;SDS011;62184;52.006;5.924;2023-08-06T01:41:19;32.05;;;20.17;;
73841;SDS011;62184;52.006;5.924;2023-08-06T01:43:46;33.45;;;20.23;;
73841;SDS011;62184;52.006;5.924;2023-08-06T01:46:12;32.60;;;20.88;;
73841;SDS011;62184;52.006;5.924;2023-08-06T01:48:39;34.78;;;20.88;;
73841;SDS011;62184;52.006;5.924;2023-08-06T01:51:06;30.60;;;18.20;;
73841;SDS011;62184;52.006;5.924;2023-08-06T01:53:35;24.13;;;16.98;;
73841;SDS011;62184;52.006;5.924;2023-08-06T01:56:02;25.52;;;17.40;;
73841;SDS011;62184;52.006;5.924;2023-08-06T01:58:29;23.45;;;16.63;;
73841;SDS011;62184;52.006;5.924;2023-08-06T02:00:55;17.33;;;14.57;;
73841;SDS011;62184;52.006;5.924;2023-08-06T02:03:21;8.98;;;8.38;;
73841;SDS011;62184;52.006;5.924;2023-08-06T02:05:48;8.60;;;8.00;;
73841;SDS011;62184;52.006;5.924;2023-08-06T02:08:14;8.80;;;8.20;;
73841;SDS011;62184;52.006;5.924;2023-08-06T02:10:43;8.70;;;8.10;;
73841;SDS011;62184;52.006;5.924;2023-08-06T02:13:11;8.60;;;8.00;;
73841;SDS011;62184;52.006;5.924;2023-08-06T02:15:41;9.20;;;8.60;;
73841;SDS011;62184;52.006;5.924;2023-08-06T02:18:08;9.00;;;8.40;;
73841;SDS011;62184;52.006;5.924;2023-08-06T02:20:35;8.93;;;8.32;;
73841;SDS011;62184;52.006;5.924;2023-08-06T02:23:02;8.95;;;8.35;;
73841;SDS011;62184;52.006;5.924;2023-08-06T02:25:28;8.80;;;8.20;;
73841;SDS011;62184;52.006;5.924;2023-08-06T02:27:57;9.10;;;8.50;;
73841;SDS011;62184;52.006;5.924;2023-08-06T02:30:24;8.85;;;8.25;;
73841;SDS011;62184;52.006;5.924;2023-08-06T02:32:50;9.00;;;8.40;;
73841;SDS011;62184;52.006;5.924;2023-08-06T02:35:17;9.18;;;8.57;;
73841;SDS011;62184;52.006;5.924;2023-08-06T02:37:43;8.70;;;8.10;;
73841;SDS011;62184;52.006;5.924;2023-08-06T02:40:10;8.68;;;8.07;;
73841;SDS011;62184;52.006;5.924;2023-08-06T02:42:37;8.30;;;7.80;;
73841;SDS011;62184;52.006;5.924;2023-08-06T02:45:06;9.00;;;8.40;;
73841;SDS011;62184;52.006;5.924;2023-08-06T02:47:34;8.20;;;7.70;;
73841;SDS011;62184;52.006;5.924;2023-08-06T02:50:01;8.45;;;7.85;;
73841;SDS011;62184;52.006;5.924;2023-08-06T02:52:27;8.55;;;7.95;;
73841;SDS011;62184;52.006;5.924;2023-08-06T02:54:54;8.90;;;8.30;;
73841;SDS011;62184;52.006;5.924;2023-08-06T02:57:20;9.07;;;8.47;;
73841;SDS011;62184;52.006;5.924;2023-08-06T02:59:46;8.77;;;8.18;;
73841;SDS011;62184;52.006;5.924;2023-08-06T03:02:15;8.90;;;8.30;;
73841;SDS011;62184;52.006;5.924;2023-08-06T03:04:42;8.50;;;7.90;;
73841;SDS011;62184;52.006;5.924;2023-08-06T03:07:08;8.70;;;8.10;;
73841;SDS011;62184;52.006;5.924;2023-08-06T03:09:35;8.60;;;8.00;;
73841;SDS011;62184;52.006;5.924;2023-08-06T03:12:01;8.70;;;8.10;;
73841;SDS011;62184;52.006;5.924;2023-08-06T03:14:28;8.60;;;8.00;;
73841;SDS011;62184;52.006;5.924;2023-08-06T03:16:55;9.10;;;8.50;;
73841;SDS011;62184;52.006;5.924;2023-08-06T03:19:24;8.73;;;8.13;;
73841;SDS011;62184;52.006;5.924;2023-08-06T03:21:50;8.93;;;8.32;;
73841;SDS011;62184;52.006;5.924;2023-08-06T03:24:17;9.32;;;8.73;;
73841;SDS011;62184;52.006;5.924;2023-08-06T03:26:43;9.40;;;8.80;;
73841;SDS011;62184;52.006;5.924;2023-08-06T03:29:09;9.00;;;8.40;;
73841;SDS011;62184;52.006;5.924;2023-08-06T03:31:36;8.90;;;8.30;;
73841;SDS011;62184;52.006;5.924;2023-08-06T03:34:02;9.38;;;8.77;;
73841;SDS011;62184;52.006;5.924;2023-08-06T03:36:32;9.05;;;8.45;;
73841;SDS011;62184;52.006;5.924;2023-08-06T03:38:58;8.93;;;8.32;;
73841;SDS011;62184;52.006;5.924;2023-08-06T03:41:24;9.20;;;8.60;;
73841;SDS011;62184;52.006;5.924;2023-08-06T03:43:51;9.30;;;8.70;;
73841;SDS011;62184;52.006;5.924;2023-08-06T03:46:17;9.00;;;8.40;;
73841;SDS011;62184;52.006;5.924;2023-08-06T03:48:44;8.73;;;8.13;;
73841;SDS011;62184;52.006;5.924;2023-08-06T03:51:10;8.88;;;8.27;;
73841;SDS011;62184;52.006;5.924;2023-08-06T03:53:39;8.70;;;8.10;;
73841;SDS011;62184;52.006;5.924;2023-08-06T03:56:06;8.77;;;8.17;;
73841;SDS011;62184;52.006;5.924;2023-08-06T03:58:32;8.68;;;8.07;;
73841;SDS011;62184;52.006;5.924;2023-08-06T04:00:59;9.00;;;8.40;;
73841;SDS011;62184;52.006;5.924;2023-08-06T04:03:25;8.93;;;8.32;;
73841;SDS011;62184;52.006;5.924;2023-08-06T04:05:52;9.00;;;8.40;;
73841;SDS011;62184;52.006;5.924;2023-08-06T04:08:19;8.90;;;8.30;;
73841;SDS011;62184;52.006;5.924;2023-08-06T04:10:51;9.32;;;8.73;;
73841;SDS011;62184;52.006;5.924;2023-08-06T04:13:18;9.20;;;8.60;;
73841;SDS011;62184;52.006;5.924;2023-08-06T04:15:45;9.57;;;8.98;;
73841;SDS011;62184;52.006;5.924;2023-08-06T04:18:12;9.30;;;8.70;;
73841;SDS011;62184;52.006;5.924;2023-08-06T04:20:42;9.30;;;8.70;;
73841;SDS011;62184;52.006;5.924;2023-08-06T04:23:09;9.05;;;8.45;;
73841;SDS011;62184;52.006;5.924;2023-08-06T04:25:35;8.00;;;7.50;;
73841;SDS011;62184;52.006;5.924;2023-08-06T04:28:05;7.93;;;7.43;;
73841;SDS011;62184;52.006;5.924;2023-08-06T04:30:33;8.23;;;7.73;;
73841;SDS011;62184;52.006;5.924;2023-08-06T04:32:59;8.30;;;7.80;;
73841;SDS011;62184;52.006;5.924;2023-08-06T04:35:26;7.80;;;7.30;;
73841;SDS011;62184;52.006;5.924;2023-08-06T04:37:52;7.93;;;7.43;;
73841;SDS011;62184;52.006;5.924;2023-08-06T04:40:19;8.20;;;7.70;;
73841;SDS011;62184;52.006;5.924;2023-08-06T04:42:45;8.05;;;7.55;;
73841;SDS011;62184;52.006;5.924;2023-08-06T04:45:14;8.30;;;7.80;;
73841;SDS011;62184;52.006;5.924;2023-08-06T04:47:41;8.10;;;7.60;;
73841;SDS011;62184;52.006;5.924;2023-08-06T04:50:07;8.10;;;7.50;;
73841;SDS011;62184;52.006;5.924;2023-08-06T04:52:35;8.52;;;7.93;;
73841;SDS011;62184;52.006;5.924;2023-08-06T04:55:01;8.63;;;8.02;;
73841;SDS011;62184;52.006;5.924;2023-08-06T04:57:28;8.40;;;7.80;;
73841;SDS011;62184;52.006;5.924;2023-08-06T04:59:55;8.60;;;8.00;;
73841;SDS011;62184;52.006;5.924;2023-08-06T05:02:24;8.40;;;7.90;;
73841;SDS011;62184;52.006;5.924;2023-08-06T05:04:50;8.60;;;8.00;;
73841;SDS011;62184;52.006;5.924;2023-08-06T05:07:17;8.60;;;8.00;;
73841;SDS011;62184;52.006;5.924;2023-08-06T05:09:43;8.60;;;8.00;;
73841;SDS011;62184;52.006;5.924;2023-08-06T05:12:10;8.70;;;8.10;;
73841;SDS011;62184;52.006;5.924;2023-08-06T05:14:36;8.40;;;7.90;;
73841;SDS011;62184;52.006;5.924;2023-08-06T05:17:03;8.20;;;7.70;;
73841;SDS011;62184;52.006;5.924;2023-08-06T05:19:32;8.75;;;8.15;;
73841;SDS011;62184;52.006;5.924;2023-08-06T05:21:59;8.20;;;7.70;;
73841;SDS011;62184;52.006;5.924;2023-08-06T05:24:25;8.10;;;7.60;;
73841;SDS011;62184;52.006;5.924;2023-08-06T05:26:52;8.20;;;7.70;;
73841;SDS011;62184;52.006;5.924;2023-08-06T05:29:18;8.00;;;7.50;;
73841;SDS011;62184;52.006;5.924;2023-08-06T05:31:44;7.85;;;7.25;;
73841;SDS011;62184;52.006;5.924;2023-08-06T05:34:11;7.90;;;7.40;;
73841;SDS011;62184;52.006;5.924;2023-08-06T05:36:40;8.70;;;8.10;;
73841;SDS011;62184;52.006;5.924;2023-08-06T05:39:06;8.57;;;7.97;;
73841;SDS011;62184;52.006;5.924;2023-08-06T05:41:33;8.30;;;7.80;;
73841;SDS011;62184;52.006;5.924;2023-08-06T05:43:59;8.30;;;7.70;;
73841;SDS011;62184;52.006;5.924;2023-08-06T05:46:26;7.88;;;7.38;;
73841;SDS011;62184;52.006;5.924;2023-08-06T05:48:52;7.78;;;7.28;;
73841;SDS011;62184;52.006;5.924;2023-08-06T05:51:19;7.57;;;7.07;;
73841;SDS011;62184;52.006;5.924;2023-08-06T05:53:48;7.80;;;7.30;;
73841;SDS011;62184;52.006;5.924;2023-08-06T05:56:14;7.90;;;7.40;;
73841;SDS011;62184;52.006;5.924;2023-08-06T05:58:41;7.60;;;7.10;;
73841;SDS011;62184;52.006;5.924;2023-08-06T06:01:07;7.40;;;6.90;;
73841;SDS011;62184;52.006;5.924;2023-08-06T06:03:34;7.80;;;7.30;;
73841;SDS011;62184;52.006;5.924;2023-08-06T06:06:00;7.40;;;6.90;;
73841;SDS011;62184;52.006;5.924;2023-08-06T06:08:27;7.70;;;7.20;;
73841;SDS011;62184;52.006;5.924;2023-08-06T06:10:56;7.60;;;7.10;;
73841;SDS011;62184;52.006;5.924;2023-08-06T06:13:23;7.30;;;6.80;;
73841;SDS011;62184;52.006;5.924;2023-08-06T06:15:50;7.53;;;7.03;;
73841;SDS011;62184;52.006;5.924;2023-08-06T06:18:20;7.43;;;6.93;;
73841;SDS011;62184;52.006;5.924;2023-08-06T06:20:47;7.53;;;7.03;;
73841;SDS011;62184;52.006;5.924;2023-08-06T06:23:14;7.05;;;6.55;;
73841;SDS011;62184;52.006;5.924;2023-08-06T06:25:41;6.88;;;6.38;;
73841;SDS011;62184;52.006;5.924;2023-08-06T06:28:11;7.47;;;6.97;;
73841;SDS011;62184;52.006;5.924;2023-08-06T06:30:37;7.00;;;6.50;;
73841;SDS011;62184;52.006;5.924;2023-08-06T06:33:04;7.38;;;6.88;;
73841;SDS011;62184;52.006;5.924;2023-08-06T06:35:30;7.20;;;6.70;;
73841;SDS011;62184;52.006;5.924;2023-08-06T06:37:56;7.50;;;7.00;;
73841;SDS011;62184;52.006;5.924;2023-08-06T06:40:23;7.47;;;6.97;;
73841;SDS011;62184;52.006;5.924;2023-08-06T06:42:49;7.80;;;7.30;;
73841;SDS011;62184;52.006;5.924;2023-08-06T06:45:18;7.50;;;7.00;;
73841;SDS011;62184;52.006;5.924;2023-08-06T06:47:45;7.55;;;7.05;;
73841;SDS011;62184;52.006;5.924;2023-08-06T06:50:11;7.28;;;6.78;;
73841;SDS011;62184;52.006;5.924;2023-08-06T06:52:38;7.60;;;7.10;;
73841;SDS011;62184;52.006;5.924;2023-08-06T06:55:05;7.60;;;7.10;;
73841;SDS011;62184;52.006;5.924;2023-08-06T06:57:32;7.20;;;6.70;;
73841;SDS011;62184;52.006;5.924;2023-08-06T06:59:59;7.40;;;6.90;;
73841;SDS011;62184;52.006;5.924;2023-08-06T07:02:29;7.30;;;6.80;;
73841;SDS011;62184;52.006;5.924;2023-08-06T07:04:56;7.60;;;7.10;;
73841;SDS011;62184;52.006;5.924;2023-08-06T07:07:23;7.40;;;6.90;;
73841;SDS011;62184;52.006;5.924;2023-08-06T07:09:49;7.70;;;7.20;;
73841;SDS011;62184;52.006;5.924;2023-08-06T07:12:16;7.65;;;7.15;;
73841;SDS011;62184;52.006;5.924;2023-08-06T07:14:42;7.90;;;7.40;;
73841;SDS011;62184;52.006;5.924;2023-08-06T07:17:08;8.40;;;7.80;;
73841;SDS011;62184;52.006;5.924;2023-08-06T07:19:38;8.20;;;7.70;;
73841;SDS011;62184;52.006;5.924;2023-08-06T07:22:04;8.02;;;7.53;;
73841;SDS011;62184;52.006;5.924;2023-08-06T07:24:31;8.27;;;7.70;;
73841;SDS011;62184;52.006;5.924;2023-08-06T07:26:57;8.50;;;7.90;;
73841;SDS011;62184;52.006;5.924;2023-08-06T07:29:24;8.60;;;8.00;;
73841;SDS011;62184;52.006;5.924;2023-08-06T07:31:50;8.80;;;8.20;;
73841;SDS011;62184;52.006;5.924;2023-08-06T07:34:18;9.07;;;8.48;;
73841;SDS011;62184;52.006;5.924;2023-08-06T07:36:47;8.20;;;7.70;;
73841;SDS011;62184;52.006;5.924;2023-08-06T07:39:13;8.50;;;7.90;;
73841;SDS011;62184;52.006;5.924;2023-08-06T07:41:40;8.55;;;7.95;;
73841;SDS011;62184;52.006;5.924;2023-08-06T07:44:06;8.45;;;7.85;;
73841;SDS011;62184;52.006;5.924;2023-08-06T07:46:33;8.10;;;7.60;;
73841;SDS011;62184;52.006;5.924;2023-08-06T07:48:59;8.60;;;8.00;;
73841;SDS011;62184;52.006;5.924;2023-08-06T07:51:26;8.03;;;7.53;;
73841;SDS011;62184;52.006;5.924;2023-08-06T07:53:55;8.70;;;8.10;;
73841;SDS011;62184;52.006;5.924;2023-08-06T07:56:21;8.80;;;8.20;;
73841;SDS011;62184;52.006;5.924;2023-08-06T07:58:48;8.98;;;8.38;;
73841;SDS011;62184;52.006;5.924;2023-08-06T08:01:14;9.33;;;8.73;;
73841;SDS011;62184;52.006;5.924;2023-08-06T08:03:41;9.30;;;8.70;;
73841;SDS011;62184;52.006;5.924;2023-08-06T08:06:07;9.50;;;8.90;;
73841;SDS011;62184;52.006;5.924;2023-08-06T08:08:34;9.30;;;8.70;;
73841;SDS011;62184;52.006;5.924;2023-08-06T08:11:03;9.65;;;9.05;;
73841;SDS011;62184;52.006;5.924;2023-08-06T08:13:29;9.30;;;8.70;;
73841;SDS011;62184;52.006;5.924;2023-08-06T08:15:56;9.05;;;8.45;;
73841;SDS011;62184;52.006;5.924;2023-08-06T08:18:23;9.40;;;8.80;;
73841;SDS011;62184;52.006;5.924;2023-08-06T08:20:50;9.02;;;8.43;;
73841;SDS011;62184;52.006;5.924;2023-08-06T08:23:16;8.80;;;8.20;;
73841;SDS011;62184;52.006;5.924;2023-08-06T08:25:43;8.38;;;7.78;;
73841;SDS011;62184;52.006;5.924;2023-08-06T08:28:12;8.70;;;8.10;;
73841;SDS011;62184;52.006;5.924;2023-08-06T08:30:40;8.98;;;8.38;;
73841;SDS011;62184;52.006;5.924;2023-08-06T08:33:07;8.93;;;8.33;;
73841;SDS011;62184;52.006;5.924;2023-08-06T08:35:33;8.60;;;8.00;;
73841;SDS011;62184;52.006;5.924;2023-08-06T08:38:00;8.02;;;7.53;;
73841;SDS011;62184;52.006;5.924;2023-08-06T08:40:28;7.73;;;7.23;;
73841;SDS011;62184;52.006;5.924;2023-08-06T08:42:59;7.93;;;7.43;;
73841;SDS011;62184;52.006;5.924;2023-08-06T08:45:28;8.00;;;7.50;;
73841;SDS011;62184;52.006;5.924;2023-08-06T08:47:58;8.40;;;7.80;;
73841;SDS011;62184;52.006;5.924;2023-08-06T08:50:25;8.25;;;7.68;;
73841;SDS011;62184;52.006;5.924;2023-08-06T08:52:51;8.30;;;7.72;;
73841;SDS011;62184;52.006;5.924;2023-08-06T08:55:18;8.00;;;7.50;;
73841;SDS011;62184;52.006;5.924;2023-08-06T08:57:47;7.80;;;7.30;;
73841;SDS011;62184;52.006;5.924;2023-08-06T09:00:14;8.13;;;7.63;;
73841;SDS011;62184;52.006;5.924;2023-08-06T09:02:43;8.40;;;7.80;;
73841;SDS011;62184;52.006;5.924;2023-08-06T09:05:11;8.33;;;7.73;;
73841;SDS011;62184;52.006;5.924;2023-08-06T09:07:41;8.00;;;7.50;;
73841;SDS011;62184;52.006;5.924;2023-08-06T09:10:11;8.13;;;7.63;;
73841;SDS011;62184;52.006;5.924;2023-08-06T09:12:42;8.20;;;7.60;;
73841;SDS011;62184;52.006;5.924;2023-08-06T09:15:09;7.93;;;7.32;;
73841;SDS011;62184;52.006;5.924;2023-08-06T09:17:36;7.60;;;7.10;;
73841;SDS011;62184;52.006;5.924;2023-08-06T09:20:12;7.28;;;6.78;;
73841;SDS011;62184;52.006;5.924;2023-08-06T09:22:40;7.32;;;6.82;;
73841;SDS011;62184;52.006;5.924;2023-08-06T09:25:07;7.60;;;7.10;;
73841;SDS011;62184;52.006;5.924;2023-08-06T09:27:34;7.50;;;7.00;;
73841;SDS011;62184;52.006;5.924;2023-08-06T09:30:02;7.50;;;7.00;;
73841;SDS011;62184;52.006;5.924;2023-08-06T09:32:33;7.38;;;6.88;;
73841;SDS011;62184;52.006;5.924;2023-08-06T09:35:16;7.38;;;6.88;;
73841;SDS011;62184;52.006;5.924;2023-08-06T09:37:42;7.70;;;7.20;;
73841;SDS011;62184;52.006;5.924;2023-08-06T09:40:23;7.97;;;7.47;;
73841;SDS011;62184;52.006;5.924;2023-08-06T09:42:51;8.07;;;7.57;;
73841;SDS011;62184;52.006;5.924;2023-08-06T09:45:18;8.30;;;7.80;;
73841;SDS011;62184;52.006;5.924;2023-08-06T09:47:45;9.70;;;9.10;;
73841;SDS011;62184;52.006;5.924;2023-08-06T09:50:17;10.70;;;10.00;;
73841;SDS011;62184;52.006;5.924;2023-08-06T09:52:44;11.00;;;10.30;;
73841;SDS011;62184;52.006;5.924;2023-08-06T09:55:12;13.95;;;13.15;;
73841;SDS011;62184;52.006;5.924;2023-08-06T09:57:39;11.50;;;10.80;;
73841;SDS011;62184;52.006;5.924;2023-08-06T10:00:09;11.80;;;11.10;;
73841;SDS011;62184;52.006;5.924;2023-08-06T10:02:37;16.30;;;15.40;;
73841;SDS011;62184;52.006;5.924;2023-08-06T10:05:04;15.88;;;14.98;;
73841;SDS011;62184;52.006;5.924;2023-08-06T10:07:35;16.67;;;15.68;;
73841;SDS011;62184;52.006;5.924;2023-08-06T10:10:03;15.75;;;14.85;;
73841;SDS011;62184;52.006;5.924;2023-08-06T10:12:32;14.73;;;13.82;;
73841;SDS011;62184;52.006;5.924;2023-08-06T10:15:04;14.88;;;13.98;;
73841;SDS011;62184;52.006;5.924;2023-08-06T10:17:38;14.50;;;13.70;;
73841;SDS011;62184;52.006;5.924;2023-08-06T10:20:08;13.98;;;13.18;;
73841;SDS011;62184;52.006;5.924;2023-08-06T10:22:38;13.50;;;12.70;;
73841;SDS011;62184;52.006;5.924;2023-08-06T10:25:09;13.30;;;12.50;;
73841;SDS011;62184;52.006;5.924;2023-08-06T10:27:40;13.30;;;12.50;;
73841;SDS011;62184;52.006;5.924;2023-08-06T10:30:23;13.27;;;12.47;;
73841;SDS011;62184;52.006;5.924;2023-08-06T10:32:51;13.27;;;12.48;;
73841;SDS011;62184;52.006;5.924;2023-08-06T10:35:29;13.43;;;12.63;;
73841;SDS011;62184;52.006;5.924;2023-08-06T10:38:07;13.20;;;12.40;;
73841;SDS011;62184;52.006;5.924;2023-08-06T10:40:36;13.85;;;13.05;;
73841;SDS011;62184;52.006;5.924;2023-08-06T10:43:04;15.20;;;14.30;;
73841;SDS011;62184;52.006;5.924;2023-08-06T10:45:34;10.73;;;10.02;;
73841;SDS011;62184;52.006;5.924;2023-08-06T10:48:02;11.75;;;11.02;;
73841;SDS011;62184;52.006;5.924;2023-08-06T10:50:29;14.70;;;13.90;;
73841;SDS011;62184;52.006;5.924;2023-08-06T10:52:57;14.15;;;13.35;;
73841;SDS011;62184;52.006;5.924;2023-08-06T10:55:31;14.43;;;13.63;;
73841;SDS011;62184;52.006;5.924;2023-08-06T10:57:58;13.90;;;13.10;;
73841;SDS011;62184;52.006;5.924;2023-08-06T11:00:25;11.40;;;10.70;;
73841;SDS011;62184;52.006;5.924;2023-08-06T11:02:52;10.35;;;9.65;;
73841;SDS011;62184;52.006;5.924;2023-08-06T11:05:19;10.52;;;9.82;;
73841;SDS011;62184;52.006;5.924;2023-08-06T11:07:46;10.75;;;10.05;;
73841;SDS011;62184;52.006;5.924;2023-08-06T11:10:13;10.60;;;9.90;;
73841;SDS011;62184;52.006;5.924;2023-08-06T11:12:42;10.50;;;9.80;;
73841;SDS011;62184;52.006;5.924;2023-08-06T11:15:09;10.40;;;9.70;;
73841;SDS011;62184;52.006;5.924;2023-08-06T11:17:36;10.20;;;9.50;;
73841;SDS011;62184;52.006;5.924;2023-08-06T11:20:05;10.10;;;9.40;;
73841;SDS011;62184;52.006;5.924;2023-08-06T11:22:32;9.95;;;9.25;;
73841;SDS011;62184;52.006;5.924;2023-08-06T11:24:59;10.20;;;9.50;;
73841;SDS011;62184;52.006;5.924;2023-08-06T11:27:26;9.60;;;9.00;;
73841;SDS011;62184;52.006;5.924;2023-08-06T11:29:56;9.40;;;8.80;;
73841;SDS011;62184;52.006;5.924;2023-08-06T11:32:22;9.85;;;9.15;;
73841;SDS011;62184;52.006;5.924;2023-08-06T11:34:48;10.38;;;9.68;;
73841;SDS011;62184;52.006;5.924;2023-08-06T11:37:15;9.77;;;9.07;;
73841;SDS011;62184;52.006;5.924;2023-08-06T11:39:44;9.85;;;9.15;;
73841;SDS011;62184;52.006;5.924;2023-08-06T11:42:13;9.90;;;9.20;;
73841;SDS011;62184;52.006;5.924;2023-08-06T11:44:40;9.85;;;9.25;;
73841;SDS011;62184;52.006;5.924;2023-08-06T11:47:11;9.43;;;8.82;;
73841;SDS011;62184;52.006;5.924;2023-08-06T11:49:40;9.90;;;9.30;;
73841;SDS011;62184;52.006;5.924;2023-08-06T11:52:10;9.77;;;9.18;;
73841;SDS011;62184;52.006;5.924;2023-08-06T11:54:41;10.07;;;9.37;;
73841;SDS011;62184;52.006;5.924;2023-08-06T11:57:08;9.70;;;9.10;;
73841;SDS011;62184;52.006;5.924;2023-08-06T11:59:36;9.50;;;8.90;;
73841;SDS011;62184;52.006;5.924;2023-08-06T12:02:04;13.20;;;12.40;;
73841;SDS011;62184;52.006;5.924;2023-08-06T12:07:28;12.20;;;11.50;;
73841;SDS011;62184;52.006;5.924;2023-08-06T12:09:56;12.55;;;11.85;;
73841;SDS011;62184;52.006;5.924;2023-08-06T12:12:23;12.77;;;11.98;;
73841;SDS011;62184;52.006;5.924;2023-08-06T12:14:50;12.55;;;11.75;;
73841;SDS011;62184;52.006;5.924;2023-08-06T12:17:19;12.70;;;11.90;;
73841;SDS011;62184;52.006;5.924;2023-08-06T12:19:45;12.50;;;11.80;;
73841;SDS011;62184;52.006;5.924;2023-08-06T12:22:12;12.80;;;12.00;;
73841;SDS011;62184;52.006;5.924;2023-08-06T12:24:49;13.05;;;12.25;;
73841;SDS011;62184;52.006;5.924;2023-08-06T12:27:15;12.27;;;11.57;;
73841;SDS011;62184;52.006;5.924;2023-08-06T12:29:42;12.70;;;11.90;;
73841;SDS011;62184;52.006;5.924;2023-08-06T12:32:10;12.07;;;11.38;;
73841;SDS011;62184;52.006;5.924;2023-08-06T12:34:37;12.35;;;11.65;;
73841;SDS011;62184;52.006;5.924;2023-08-06T12:37:05;12.82;;;12.02;;
73841;SDS011;62184;52.006;5.924;2023-08-06T12:39:31;12.88;;;12.07;;
73841;SDS011;62184;52.006;5.924;2023-08-06T12:42:00;13.02;;;12.23;;
73841;SDS011;62184;52.006;5.924;2023-08-06T12:44:27;12.68;;;11.88;;
73841;SDS011;62184;52.006;5.924;2023-08-06T12:46:54;13.30;;;12.50;;
73841;SDS011;62184;52.006;5.924;2023-08-06T12:49:21;12.93;;;12.13;;
73841;SDS011;62184;52.006;5.924;2023-08-06T12:51:48;12.70;;;11.90;;
73841;SDS011;62184;52.006;5.924;2023-08-06T12:54:16;13.20;;;12.40;;
73841;SDS011;62184;52.006;5.924;2023-08-06T12:56:43;13.10;;;12.30;;
73841;SDS011;62184;52.006;5.924;2023-08-06T12:59:13;12.40;;;11.70;;
73841;SDS011;62184;52.006;5.924;2023-08-06T13:01:41;12.10;;;11.40;;
73841;SDS011;62184;52.006;5.924;2023-08-06T13:04:08;12.23;;;11.53;;
73841;SDS011;62184;52.006;5.924;2023-08-06T13:06:35;12.20;;;11.50;;
73841;SDS011;62184;52.006;5.924;2023-08-06T13:09:02;12.45;;;11.75;;
73841;SDS011;62184;52.006;5.924;2023-08-06T13:11:29;12.02;;;11.32;;
73841;SDS011;62184;52.006;5.924;2023-08-06T13:13:56;12.25;;;11.55;;
73841;SDS011;62184;52.006;5.924;2023-08-06T13:16:32;12.23;;;11.52;;
73841;SDS011;62184;52.006;5.924;2023-08-06T13:18:58;12.52;;;11.80;;
73841;SDS011;62184;52.006;5.924;2023-08-06T13:21:33;12.50;;;11.80;;
73841;SDS011;62184;52.006;5.924;2023-08-06T13:24:17;12.00;;;11.30;;
73841;SDS011;62184;52.006;5.924;2023-08-06T13:26:45;12.33;;;11.63;;
73841;SDS011;62184;52.006;5.924;2023-08-06T13:29:11;11.85;;;11.15;;
73841;SDS011;62184;52.006;5.924;2023-08-06T13:31:40;10.70;;;10.00;;
73841;SDS011;62184;52.006;5.924;2023-08-06T13:34:07;10.65;;;9.95;;
73841;SDS011;62184;52.006;5.924;2023-08-06T13:36:33;10.40;;;9.70;;
73841;SDS011;62184;52.006;5.924;2023-08-06T13:39:00;10.18;;;9.48;;
73841;SDS011;62184;52.006;5.924;2023-08-06T13:41:26;9.97;;;9.37;;
73841;SDS011;62184;52.006;5.924;2023-08-06T13:43:53;10.20;;;9.50;;
73841;SDS011;62184;52.006;5.924;2023-08-06T13:46:19;9.73;;;9.13;;
73841;SDS011;62184;52.006;5.924;2023-08-06T13:48:49;9.52;;;8.93;;
73841;SDS011;62184;52.006;5.924;2023-08-06T13:51:15;9.27;;;8.68;;
73841;SDS011;62184;52.006;5.924;2023-08-06T13:53:42;9.00;;;8.40;;
73841;SDS011;62184;52.006;5.924;2023-08-06T13:56:09;8.90;;;8.30;;
73841;SDS011;62184;52.006;5.924;2023-08-06T13:58:36;8.70;;;8.10;;
73841;SDS011;62184;52.006;5.924;2023-08-06T14:01:02;9.20;;;8.60;;
73841;SDS011;62184;52.006;5.924;2023-08-06T14:03:29;8.90;;;8.30;;
73841;SDS011;62184;52.006;5.924;2023-08-06T14:05:58;8.88;;;8.27;;
73841;SDS011;62184;52.006;5.924;2023-08-06T14:08:25;8.57;;;7.97;;
73841;SDS011;62184;52.006;5.924;2023-08-06T14:10:51;8.68;;;8.07;;
73841;SDS011;62184;52.006;5.924;2023-08-06T14:13:19;8.80;;;8.20;;
73841;SDS011;62184;52.006;5.924;2023-08-06T14:15:47;8.37;;;7.77;;
73841;SDS011;62184;52.006;5.924;2023-08-06T14:18:13;8.20;;;7.60;;
73841;SDS011;62184;52.006;5.924;2023-08-06T14:20:40;8.70;;;8.10;;
73841;SDS011;62184;52.006;5.924;2023-08-06T14:23:10;8.50;;;7.90;;
73841;SDS011;62184;52.006;5.924;2023-08-06T14:25:37;8.50;;;7.90;;
73841;SDS011;62184;52.006;5.924;2023-08-06T14:28:05;8.55;;;7.95;;
73841;SDS011;62184;52.006;5.924;2023-08-06T14:30:31;8.20;;;7.60;;
73841;SDS011;62184;52.006;5.924;2023-08-06T14:32:58;8.25;;;7.65;;
73841;SDS011;62184;52.006;5.924;2023-08-06T14:35:24;8.68;;;8.07;;
73841;SDS011;62184;52.006;5.924;2023-08-06T14:37:51;9.20;;;8.60;;
73841;SDS011;62184;52.006;5.924;2023-08-06T14:40:20;8.47;;;7.87;;
73841;SDS011;62184;52.006;5.924;2023-08-06T14:42:46;8.77;;;8.18;;
73841;SDS011;62184;52.006;5.924;2023-08-06T14:45:13;8.70;;;8.10;;